createdAt,value
2023-02-04T00:00:06.206Z,4.80
2023-02-04T00:00:38.886Z,2.40
2023-02-04T00:01:11.350Z,3.20
2023-02-04T00:01:46.626Z,2.40
2023-02-04T00:02:22.605Z,4.80
2023-02-04T00:02:55.138Z,1.60
2023-02-04T00:03:27.543Z,2.40
2023-02-04T00:04:01.657Z,4.00
2023-02-04T00:04:34.129Z,3.20
2023-02-04T00:05:07.211Z,4.00
2023-02-04T00:05:39.717Z,1.60
2023-02-04T00:06:12.181Z,3.20
2023-02-04T00:06:44.750Z,0.80
2023-02-04T00:07:18.107Z,1.60
2023-02-04T00:07:51.822Z,1.60
2023-02-04T00:08:26.547Z,1.60
2023-02-04T00:08:59.016Z,1.60
2023-02-04T00:09:31.982Z,2.40
2023-02-04T00:10:04.863Z,4.00
2023-02-04T00:10:37.380Z,4.00
2023-02-04T00:11:09.931Z,1.60
2023-02-04T00:11:42.415Z,0.80
2023-02-04T00:12:14.850Z,4.80
2023-02-04T00:12:47.277Z,6.40
2023-02-04T00:13:19.827Z,5.60
2023-02-04T00:13:55.223Z,3.20
2023-02-04T00:14:27.698Z,2.40
2023-02-04T00:15:00.550Z,2.40
2023-02-04T00:15:33.449Z,2.40
2023-02-04T00:16:05.974Z,3.20
2023-02-04T00:16:38.386Z,4.80
2023-02-04T00:17:10.859Z,3.20
2023-02-04T00:17:43.384Z,1.60
2023-02-04T00:18:15.853Z,2.40
2023-02-04T00:18:48.815Z,4.80
2023-02-04T00:19:21.346Z,4.00
2023-02-04T00:19:53.801Z,2.40
2023-02-04T00:20:26.254Z,2.40
2023-02-04T00:20:58.717Z,2.40
2023-02-04T00:21:31.515Z,3.20
2023-02-04T00:22:04.502Z,2.40
2023-02-04T00:22:37.327Z,7.20
2023-02-04T00:23:09.818Z,4.80
2023-02-04T00:23:42.542Z,4.00
2023-02-04T00:24:14.966Z,5.60
2023-02-04T00:24:48.754Z,1.60
2023-02-04T00:25:24.765Z,4.00
2023-02-04T00:26:12.262Z,3.20
2023-02-04T00:26:44.746Z,2.40
2023-02-04T00:27:18.121Z,1.60
2023-02-04T00:27:50.758Z,3.20
2023-02-04T00:28:23.172Z,3.20
2023-02-04T00:28:56.128Z,1.60
2023-02-04T00:29:28.675Z,4.00
2023-02-04T00:30:01.304Z,3.20
2023-02-04T00:30:34.119Z,3.20
2023-02-04T00:31:07.073Z,3.20
2023-02-04T00:31:39.627Z,5.60
2023-02-04T00:32:12.312Z,4.00
2023-02-04T00:32:44.618Z,5.60
2023-02-04T00:33:17.048Z,4.00
2023-02-04T00:33:49.503Z,4.00
2023-02-04T00:34:24.364Z,2.40
2023-02-04T00:34:56.792Z,4.00
2023-02-04T00:35:29.293Z,4.00
2023-02-04T00:36:01.746Z,5.60
2023-02-04T00:36:34.189Z,1.60
2023-02-04T00:37:06.629Z,1.60
2023-02-04T00:37:39.077Z,2.40
2023-02-04T00:38:11.567Z,1.60
2023-02-04T00:38:44.044Z,2.40
2023-02-04T00:39:16.503Z,4.80
2023-02-04T00:39:48.958Z,1.60
2023-02-04T00:40:21.395Z,0.80
2023-02-04T00:40:53.869Z,4.00
2023-02-04T00:41:26.304Z,1.60
2023-02-04T00:41:58.754Z,2.40
2023-02-04T00:42:31.256Z,2.40
2023-02-04T00:43:03.658Z,6.40
2023-02-04T00:43:36.136Z,2.40
2023-02-04T00:44:08.621Z,2.40
2023-02-04T00:44:41.145Z,2.40
2023-02-04T00:45:13.598Z,0.80
2023-02-04T00:45:46.065Z,0.00
2023-02-04T00:46:18.474Z,0.00
2023-02-04T00:46:50.929Z,0.80
2023-02-04T00:47:23.489Z,3.20
2023-02-04T00:47:55.935Z,1.60
2023-02-04T00:48:28.367Z,1.60
2023-02-04T00:49:00.815Z,0.80
2023-02-04T00:49:33.257Z,0.80
2023-02-04T00:50:05.680Z,1.60
2023-02-04T00:50:38.169Z,2.40
2023-02-04T00:51:10.567Z,1.60
2023-02-04T00:51:43.090Z,1.60
2023-02-04T00:52:15.527Z,0.80
2023-02-04T00:52:47.967Z,3.20
2023-02-04T00:53:20.408Z,5.60
2023-02-04T00:53:52.847Z,7.20
2023-02-04T00:54:25.286Z,0.80
2023-02-04T00:54:57.783Z,0.80
2023-02-04T00:55:30.231Z,0.80
2023-02-04T00:56:02.672Z,1.60
2023-02-04T00:56:35.090Z,0.80
2023-02-04T00:57:07.524Z,1.60
2023-02-04T00:57:39.969Z,2.40
2023-02-04T00:58:12.398Z,3.20
2023-02-04T00:58:44.877Z,3.20
2023-02-04T00:59:17.294Z,2.40
2023-02-04T00:59:49.772Z,3.20
2023-02-04T01:00:22.198Z,3.20
2023-02-04T01:00:54.679Z,3.20
2023-02-04T01:01:27.117Z,6.40
2023-02-04T01:01:59.570Z,3.20
2023-02-04T01:02:32.072Z,6.40
2023-02-04T01:03:04.589Z,1.60
2023-02-04T01:03:36.954Z,1.60
2023-02-04T01:04:09.418Z,4.00
2023-02-04T01:04:41.931Z,1.60
2023-02-04T01:05:14.430Z,2.40
2023-02-04T01:05:46.938Z,4.00
2023-02-04T01:06:19.474Z,4.80
2023-02-04T01:06:51.934Z,0.80
2023-02-04T01:07:24.504Z,0.80
2023-02-04T01:07:56.878Z,3.20
2023-02-04T01:08:29.338Z,6.40
2023-02-04T01:09:01.790Z,7.20
2023-02-04T01:09:34.259Z,0.80
2023-02-04T01:10:06.711Z,4.80
2023-02-04T01:10:39.184Z,1.60
2023-02-04T01:11:11.630Z,4.80
2023-02-04T01:11:44.193Z,4.00
2023-02-04T01:12:16.741Z,2.40
2023-02-04T01:12:49.230Z,1.60
2023-02-04T01:13:21.677Z,1.60
2023-02-04T01:13:54.136Z,0.00
2023-02-04T01:14:26.568Z,2.40
2023-02-04T01:14:59.031Z,1.60
2023-02-04T01:15:32.169Z,1.60
2023-02-04T01:16:04.625Z,4.00
2023-02-04T01:16:37.112Z,3.20
2023-02-04T01:17:09.599Z,4.00
2023-02-04T01:17:42.073Z,4.00
2023-02-04T01:18:14.674Z,4.00
2023-02-04T01:18:47.151Z,7.20
2023-02-04T01:19:19.690Z,6.40
2023-02-04T01:19:52.240Z,3.20
2023-02-04T01:20:24.690Z,2.40
2023-02-04T01:20:57.131Z,4.00
2023-02-04T01:21:29.552Z,1.60
2023-02-04T01:22:01.977Z,1.60
2023-02-04T01:22:34.436Z,4.00
2023-02-04T01:23:06.852Z,6.40
2023-02-04T01:23:39.334Z,3.20
2023-02-04T01:24:11.760Z,5.60
2023-02-04T01:24:44.209Z,4.00
2023-02-04T01:25:16.649Z,4.00
2023-02-04T01:25:49.088Z,3.20
2023-02-04T01:26:21.522Z,3.20
2023-02-04T01:26:53.989Z,4.00
2023-02-04T01:27:26.414Z,0.80
2023-02-04T01:27:59.630Z,3.20
2023-02-04T01:28:32.185Z,4.80
2023-02-04T01:29:04.619Z,2.40
2023-02-04T01:29:37.087Z,1.60
2023-02-04T01:30:09.694Z,1.60
2023-02-04T01:30:42.230Z,6.40
2023-02-04T01:31:14.750Z,2.40
2023-02-04T01:31:47.140Z,2.40
2023-02-04T01:32:19.507Z,2.40
2023-02-04T01:32:52.058Z,0.80
2023-02-04T01:33:24.488Z,0.80
2023-02-04T01:33:56.942Z,3.20
2023-02-04T01:34:29.363Z,3.20
2023-02-04T01:35:01.862Z,4.00
2023-02-04T01:35:34.336Z,1.60
2023-02-04T01:36:06.792Z,1.60
2023-02-04T01:36:39.241Z,0.80
2023-02-04T01:37:11.693Z,4.00
2023-02-04T01:37:44.146Z,3.20
2023-02-04T01:38:17.010Z,0.80
2023-02-04T01:38:49.442Z,1.60
2023-02-04T01:39:21.886Z,4.00
2023-02-04T01:39:54.338Z,2.40
2023-02-04T01:40:26.813Z,1.60
2023-02-04T01:40:59.386Z,0.00
2023-02-04T01:41:31.807Z,0.00
2023-02-04T01:42:04.285Z,2.40
2023-02-04T01:42:36.730Z,4.80
2023-02-04T01:43:09.164Z,0.80
2023-02-04T01:43:41.612Z,1.60
2023-02-04T01:44:14.103Z,1.60
2023-02-04T01:44:47.213Z,4.00
2023-02-04T01:45:19.669Z,4.80
2023-02-04T01:45:52.179Z,7.20
2023-02-04T01:46:24.591Z,9.60
2023-02-04T01:46:57.032Z,7.20
2023-02-04T01:47:29.518Z,6.40
2023-02-04T01:48:01.949Z,6.40
2023-02-04T01:48:34.424Z,4.80
2023-02-04T01:49:06.878Z,4.00
2023-02-04T01:49:39.389Z,1.60
2023-02-04T01:50:11.842Z,1.60
2023-02-04T01:50:44.315Z,2.40
2023-02-04T01:51:16.789Z,1.60
2023-02-04T01:51:49.205Z,1.60
2023-02-04T01:52:21.663Z,0.80
2023-02-04T01:52:54.154Z,1.60
2023-02-04T01:53:26.602Z,1.60
2023-02-04T01:53:59.018Z,1.60
2023-02-04T01:54:31.478Z,0.00
2023-02-04T01:55:03.953Z,1.60
2023-02-04T01:55:36.425Z,1.60
2023-02-04T01:56:08.880Z,6.40
2023-02-04T01:56:41.302Z,2.40
2023-02-04T01:57:13.757Z,2.40
2023-02-04T01:57:46.277Z,4.00
2023-02-04T01:58:18.755Z,2.40
2023-02-04T01:58:51.218Z,1.60
2023-02-04T01:59:23.743Z,2.40
2023-02-04T01:59:56.201Z,0.00
2023-02-04T02:00:28.934Z,2.40
2023-02-04T02:01:01.204Z,1.60
2023-02-04T02:01:33.590Z,1.60
2023-02-04T02:02:06.092Z,2.40
2023-02-04T02:02:38.658Z,2.40
2023-02-04T02:03:11.026Z,1.60
2023-02-04T02:03:43.476Z,2.40
2023-02-04T02:04:15.942Z,1.60
2023-02-04T02:04:48.536Z,2.40
2023-02-04T02:05:20.991Z,1.60
2023-02-04T02:05:53.448Z,0.80
2023-02-04T02:06:25.895Z,3.20
2023-02-04T02:06:58.363Z,2.40
2023-02-04T02:07:30.841Z,2.40
2023-02-04T02:08:03.291Z,1.60
2023-02-04T02:08:35.728Z,1.60
2023-02-04T02:09:08.202Z,2.40
2023-02-04T02:09:40.653Z,0.80
2023-02-04T02:10:13.109Z,1.60
2023-02-04T02:10:45.627Z,3.20
2023-02-04T02:11:18.166Z,0.80
2023-02-04T02:11:50.637Z,1.60
2023-02-04T02:12:23.083Z,0.80
2023-02-04T02:12:55.530Z,0.80
2023-02-04T02:13:27.977Z,0.80
2023-02-04T02:14:00.438Z,0.80
2023-02-04T02:14:32.930Z,0.80
2023-02-04T02:15:05.327Z,1.60
2023-02-04T02:15:37.783Z,8.00
2023-02-04T02:16:10.258Z,4.00
2023-02-04T02:16:42.806Z,3.20
2023-02-04T02:17:15.244Z,1.60
2023-02-04T02:17:47.741Z,1.60
2023-02-04T02:18:20.367Z,4.00
2023-02-04T02:18:52.943Z,2.40
2023-02-04T02:19:25.397Z,1.60
2023-02-04T02:19:57.865Z,4.80
2023-02-04T02:20:30.734Z,4.00
2023-02-04T02:21:04.344Z,1.60
2023-02-04T02:21:37.677Z,1.60
2023-02-04T02:22:10.125Z,2.40
2023-02-04T02:22:42.590Z,1.60
2023-02-04T02:23:15.056Z,0.80
2023-02-04T02:23:47.554Z,1.60
2023-02-04T02:24:20.082Z,2.40
2023-02-04T02:24:52.652Z,1.60
2023-02-04T02:25:25.102Z,0.80
2023-02-04T02:25:57.625Z,1.60
2023-02-04T02:26:30.064Z,0.80
2023-02-04T02:27:02.507Z,0.80
2023-02-04T02:27:35.009Z,0.00
2023-02-04T02:28:07.581Z,3.20
2023-02-04T02:28:40.029Z,1.60
2023-02-04T02:29:12.463Z,1.60
2023-02-04T02:29:45.128Z,1.60
2023-02-04T02:30:17.740Z,1.60
2023-02-04T02:30:50.179Z,1.60
2023-02-04T02:31:23.543Z,4.80
2023-02-04T02:31:57.245Z,4.80
2023-02-04T02:32:29.658Z,4.80
2023-02-04T02:33:02.145Z,1.60
2023-02-04T02:33:35.612Z,1.60
2023-02-04T02:34:08.056Z,2.40
2023-02-04T02:34:40.961Z,1.60
2023-02-04T02:35:13.493Z,0.80
2023-02-04T02:35:45.959Z,0.00
2023-02-04T02:36:18.391Z,0.00
2023-02-04T02:36:50.983Z,2.40
2023-02-04T02:37:24.225Z,0.80
2023-02-04T02:37:56.769Z,0.80
2023-02-04T02:38:30.394Z,0.00
2023-02-04T02:39:02.885Z,0.00
2023-02-04T02:39:35.467Z,1.60
2023-02-04T02:40:07.911Z,2.40
2023-02-04T02:40:40.403Z,1.60
2023-02-04T02:41:12.944Z,1.60
2023-02-04T02:41:46.926Z,0.80
2023-02-04T02:42:20.226Z,1.60
2023-02-04T02:42:52.806Z,0.00
2023-02-04T02:43:25.345Z,3.20
2023-02-04T02:43:58.387Z,1.60
2023-02-04T02:44:30.843Z,1.60
2023-02-04T02:45:03.321Z,0.00
2023-02-04T02:45:36.152Z,1.60
2023-02-04T02:46:08.638Z,0.80
2023-02-04T02:46:41.056Z,2.40
2023-02-04T02:47:13.935Z,0.00
2023-02-04T02:47:46.797Z,0.00
2023-02-04T02:48:21.126Z,2.40
2023-02-04T02:48:53.568Z,2.40
2023-02-04T02:49:26.008Z,0.00
2023-02-04T02:49:58.473Z,0.00
2023-02-04T02:50:31.247Z,0.00
2023-02-04T02:51:03.417Z,0.80
2023-02-04T02:51:35.904Z,2.40
2023-02-04T02:52:08.539Z,2.40
2023-02-04T02:52:41.750Z,0.80
2023-02-04T02:53:14.211Z,1.60
2023-02-04T02:53:47.785Z,1.60
2023-02-04T02:54:20.415Z,2.40
2023-02-04T02:54:53.843Z,0.80
2023-02-04T02:55:26.360Z,0.00
2023-02-04T02:55:58.812Z,0.00
2023-02-04T02:56:31.356Z,0.00
2023-02-04T02:57:04.981Z,1.60
2023-02-04T02:57:37.442Z,4.80
2023-02-04T02:58:10.737Z,1.60
2023-02-04T02:58:43.160Z,0.00
2023-02-04T02:59:15.624Z,0.00
2023-02-04T02:59:48.118Z,0.00
2023-02-04T03:00:20.605Z,0.00
2023-02-04T03:00:53.182Z,1.60
2023-02-04T03:01:25.614Z,1.60
2023-02-04T03:01:58.024Z,0.00
2023-02-04T03:02:30.595Z,1.60
2023-02-04T03:03:02.963Z,1.60
2023-02-04T03:03:36.115Z,0.80
2023-02-04T03:04:08.545Z,0.00
2023-02-04T03:04:41.676Z,0.00
2023-02-04T03:05:14.924Z,0.80
2023-02-04T03:05:47.380Z,0.00
2023-02-04T03:06:19.836Z,1.60
2023-02-04T03:06:52.262Z,0.80
2023-02-04T03:07:25.209Z,0.80
2023-02-04T03:07:57.631Z,0.80
2023-02-04T03:08:30.069Z,0.80
2023-02-04T03:09:02.508Z,1.60
2023-02-04T03:09:34.996Z,1.60
2023-02-04T03:10:08.222Z,0.00
2023-02-04T03:10:40.687Z,0.80
2023-02-04T03:11:13.138Z,1.60
2023-02-04T03:11:45.587Z,4.00
2023-02-04T03:12:18.264Z,0.80
2023-02-04T03:12:51.760Z,0.00
2023-02-04T03:13:24.215Z,3.20
2023-02-04T03:13:56.651Z,1.60
2023-02-04T03:14:30.039Z,1.60
2023-02-04T03:15:02.498Z,1.60
2023-02-04T03:15:35.009Z,2.40
2023-02-04T03:16:07.582Z,2.40
2023-02-04T03:16:42.104Z,1.60
2023-02-04T03:17:14.586Z,0.00
2023-02-04T03:17:48.322Z,0.80
2023-02-04T03:18:20.763Z,1.60
2023-02-04T03:18:54.986Z,1.60
2023-02-04T03:19:28.043Z,2.40
2023-02-04T03:20:00.509Z,1.60
2023-02-04T03:20:33.255Z,4.00
2023-02-04T03:21:05.404Z,0.00
2023-02-04T03:21:38.369Z,2.40
2023-02-04T03:22:10.859Z,1.60
2023-02-04T03:22:44.226Z,1.60
2023-02-04T03:23:17.165Z,1.60
2023-02-04T03:23:49.453Z,1.60
2023-02-04T03:24:21.959Z,0.80
2023-02-04T03:24:54.506Z,2.40
2023-02-04T03:25:26.942Z,2.40
2023-02-04T03:25:59.420Z,1.60
2023-02-04T03:26:31.938Z,1.60
2023-02-04T03:27:05.150Z,2.40
2023-02-04T03:27:38.376Z,0.80
2023-02-04T03:28:10.814Z,0.00
2023-02-04T03:28:43.227Z,0.00
2023-02-04T03:29:15.646Z,0.00
2023-02-04T03:29:48.136Z,0.00
2023-02-04T03:30:20.921Z,2.40
2023-02-04T03:30:53.495Z,0.80
2023-02-04T03:31:25.950Z,4.00
2023-02-04T03:31:58.471Z,0.80
2023-02-04T03:32:30.771Z,1.60
2023-02-04T03:33:03.237Z,3.20
2023-02-04T03:33:35.682Z,1.60
2023-02-04T03:34:08.107Z,0.80
2023-02-04T03:34:41.760Z,1.60
2023-02-04T03:35:14.112Z,1.60
2023-02-04T03:35:46.565Z,1.60
2023-02-04T03:36:19.963Z,2.40
2023-02-04T03:36:52.588Z,2.40
2023-02-04T03:37:25.038Z,0.80
2023-02-04T03:37:59.177Z,2.40
2023-02-04T03:38:31.625Z,1.60
2023-02-04T03:39:04.281Z,2.40
2023-02-04T03:39:36.744Z,1.60
2023-02-04T03:40:09.202Z,0.80
2023-02-04T03:40:41.905Z,1.60
2023-02-04T03:41:14.450Z,1.60
2023-02-04T03:41:47.016Z,1.60
2023-02-04T03:42:19.482Z,0.80
2023-02-04T03:42:51.918Z,0.00
2023-02-04T03:43:24.397Z,1.60
2023-02-04T03:43:56.968Z,1.60
2023-02-04T03:44:30.450Z,7.20
2023-02-04T03:45:02.904Z,2.40
2023-02-04T03:45:44.974Z,2.40
2023-02-04T03:46:08.567Z,2.40
2023-02-04T03:46:40.958Z,0.80
2023-02-04T03:47:13.414Z,0.80
2023-02-04T03:47:45.959Z,0.80
2023-02-04T03:48:18.614Z,1.60
2023-02-04T03:48:51.143Z,2.40
2023-02-04T03:49:23.554Z,2.40
2023-02-04T03:49:56.044Z,0.80
2023-02-04T03:50:28.613Z,1.60
2023-02-04T03:51:01.037Z,0.80
2023-02-04T03:51:34.574Z,0.00
2023-02-04T03:52:07.482Z,0.00
2023-02-04T03:52:39.971Z,0.00
2023-02-04T03:53:12.410Z,2.40
2023-02-04T03:53:44.849Z,0.00
2023-02-04T03:54:17.420Z,1.60
2023-02-04T03:54:49.879Z,0.80
2023-02-04T03:55:22.972Z,3.20
2023-02-04T03:55:56.104Z,1.60
2023-02-04T03:56:28.689Z,1.60
2023-02-04T03:57:01.183Z,2.40
2023-02-04T03:57:33.702Z,3.20
2023-02-04T03:58:06.362Z,0.80
2023-02-04T03:58:39.045Z,0.80
2023-02-04T03:59:12.518Z,0.00
2023-02-04T03:59:44.958Z,0.00
2023-02-04T04:00:17.434Z,0.00
2023-02-04T04:00:49.965Z,0.00
2023-02-04T04:01:22.443Z,0.00
2023-02-04T04:01:54.867Z,0.80
2023-02-04T04:02:27.364Z,1.60
2023-02-04T04:02:59.956Z,0.80
2023-02-04T04:03:32.336Z,0.80
2023-02-04T04:04:04.806Z,2.40
2023-02-04T04:04:37.440Z,1.60
2023-02-04T04:05:09.898Z,1.60
2023-02-04T04:05:42.351Z,0.80
2023-02-04T04:06:14.792Z,0.80
2023-02-04T04:06:47.251Z,0.00
2023-02-04T04:07:19.732Z,0.00
2023-02-04T04:07:52.145Z,0.00
2023-02-04T04:08:24.608Z,0.80
2023-02-04T04:08:57.778Z,0.00
2023-02-04T04:09:30.997Z,0.00
2023-02-04T04:10:03.404Z,0.00
2023-02-04T04:10:35.893Z,0.00
2023-02-04T04:11:09.806Z,0.00
2023-02-04T04:11:42.228Z,0.00
2023-02-04T04:12:14.735Z,0.00
2023-02-04T04:12:47.872Z,0.00
2023-02-04T04:13:20.353Z,0.80
2023-02-04T04:13:53.361Z,1.60
2023-02-04T04:14:25.779Z,0.00
2023-02-04T04:14:59.314Z,0.00
2023-02-04T04:15:31.751Z,0.00
2023-02-04T04:16:04.233Z,0.00
2023-02-04T04:16:36.700Z,2.40
2023-02-04T04:17:10.203Z,0.80
2023-02-04T04:17:42.219Z,0.80
2023-02-04T04:18:15.359Z,0.80
2023-02-04T04:18:47.824Z,0.80
2023-02-04T04:19:21.241Z,0.00
2023-02-04T04:19:53.674Z,0.80
2023-02-04T04:20:26.148Z,0.00
2023-02-04T04:20:58.640Z,0.80
2023-02-04T04:21:31.084Z,0.00
2023-02-04T04:22:03.614Z,0.00
2023-02-04T04:22:36.075Z,0.00
2023-02-04T04:23:09.145Z,0.80
2023-02-04T04:23:41.598Z,0.80
2023-02-04T04:24:14.019Z,1.60
2023-02-04T04:24:46.466Z,0.00
2023-02-04T04:25:18.899Z,0.00
2023-02-04T04:25:51.400Z,0.80
2023-02-04T04:26:23.843Z,0.80
2023-02-04T04:26:56.420Z,0.00
2023-02-04T04:27:29.994Z,0.00
2023-02-04T04:28:02.736Z,0.00
2023-02-04T04:28:35.138Z,1.60
2023-02-04T04:29:08.653Z,0.80
2023-02-04T04:29:42.357Z,0.00
2023-02-04T04:30:14.794Z,0.80
2023-02-04T04:30:49.773Z,1.60
2023-02-04T04:31:22.330Z,0.80
2023-02-04T04:31:55.098Z,0.80
2023-02-04T04:32:27.462Z,2.40
2023-02-04T04:33:02.470Z,2.40
2023-02-04T04:33:35.684Z,0.00
2023-02-04T04:34:08.093Z,0.00
2023-02-04T04:34:41.326Z,0.00
2023-02-04T04:35:13.736Z,0.00
2023-02-04T04:35:46.164Z,0.80
2023-02-04T04:36:18.613Z,0.00
2023-02-04T04:36:52.033Z,0.00
2023-02-04T04:37:24.557Z,0.00
2023-02-04T04:37:57.498Z,0.00
2023-02-04T04:38:30.485Z,0.80
2023-02-04T04:39:02.938Z,1.60
2023-02-04T04:39:35.377Z,0.00
2023-02-04T04:40:07.820Z,0.00
2023-02-04T04:40:40.302Z,0.00
2023-02-04T04:41:12.780Z,0.00
2023-02-04T04:41:45.232Z,0.00
2023-02-04T04:42:18.443Z,0.00
2023-02-04T04:42:51.082Z,0.00
2023-02-04T04:43:23.598Z,0.00
2023-02-04T04:43:56.095Z,0.00
2023-02-04T04:44:29.992Z,0.00
2023-02-04T04:45:02.455Z,0.00
2023-02-04T04:45:34.953Z,0.00
2023-02-04T04:46:08.247Z,0.00
2023-02-04T04:46:40.723Z,0.00
2023-02-04T04:47:13.124Z,0.00
2023-02-04T04:47:45.551Z,0.00
2023-02-04T04:48:17.979Z,0.00
2023-02-04T04:48:51.545Z,2.40
2023-02-04T04:49:24.940Z,0.80
2023-02-04T04:49:57.358Z,0.00
2023-02-04T04:50:30.061Z,0.00
2023-02-04T04:51:02.295Z,0.00
2023-02-04T04:51:36.709Z,0.80
2023-02-04T04:52:09.134Z,0.00
2023-02-04T04:52:41.583Z,0.00
2023-02-04T04:53:14.020Z,0.00
2023-02-04T04:53:46.482Z,0.00
2023-02-04T04:54:18.921Z,0.80
2023-02-04T04:54:52.627Z,0.00
2023-02-04T04:55:25.153Z,0.00
2023-02-04T04:55:58.409Z,0.00
2023-02-04T04:56:30.877Z,0.00
2023-02-04T04:57:03.405Z,0.00
2023-02-04T04:57:35.925Z,0.00
2023-02-04T04:58:08.896Z,0.00
2023-02-04T04:58:41.367Z,0.00
2023-02-04T04:59:13.862Z,0.00
2023-02-04T04:59:46.300Z,0.00
2023-02-04T05:00:19.427Z,2.40
2023-02-04T05:00:52.197Z,1.60
2023-02-04T05:01:24.489Z,0.00
2023-02-04T05:01:56.921Z,0.00
2023-02-04T05:02:29.352Z,0.00
2023-02-04T05:03:01.820Z,0.00
2023-02-04T05:03:34.278Z,0.00
2023-02-04T05:04:06.804Z,0.00
2023-02-04T05:04:39.286Z,0.00
2023-02-04T05:05:11.734Z,0.00
2023-02-04T05:05:44.186Z,0.00
2023-02-04T05:06:17.810Z,0.00
2023-02-04T05:06:50.246Z,0.00
2023-02-04T05:07:22.668Z,0.00
2023-02-04T05:07:55.661Z,0.00
2023-02-04T05:08:28.124Z,0.80
2023-02-04T05:09:00.743Z,0.80
2023-02-04T05:09:33.200Z,2.40
2023-02-04T05:10:05.951Z,0.80
2023-02-04T05:10:39.190Z,1.60
2023-02-04T05:11:11.672Z,0.00
2023-02-04T05:11:44.467Z,0.00
2023-02-04T05:12:16.907Z,0.00
2023-02-04T05:12:49.383Z,0.00
2023-02-04T05:13:21.802Z,0.00
2023-02-04T05:13:54.261Z,0.80
2023-02-04T05:14:26.987Z,1.60
2023-02-04T05:14:59.441Z,1.60
2023-02-04T05:15:39.492Z,0.00
2023-02-04T05:16:12.176Z,0.00
2023-02-04T05:16:44.549Z,1.60
2023-02-04T05:17:16.958Z,3.20
2023-02-04T05:17:49.437Z,0.80
2023-02-04T05:18:21.883Z,0.00
2023-02-04T05:18:54.305Z,0.00
2023-02-04T05:19:26.717Z,0.00
2023-02-04T05:19:59.177Z,0.00
2023-02-04T05:20:31.884Z,0.00
2023-02-04T05:21:04.145Z,0.00
2023-02-04T05:21:36.590Z,0.80
2023-02-04T05:22:09.050Z,0.80
2023-02-04T05:22:41.483Z,0.80
2023-02-04T05:23:13.942Z,0.00
2023-02-04T05:23:46.435Z,0.00
2023-02-04T05:24:18.894Z,0.80
2023-02-04T05:24:51.327Z,0.80
2023-02-04T05:25:23.762Z,0.80
2023-02-04T05:25:56.212Z,0.00
2023-02-04T05:26:30.863Z,0.00
2023-02-04T05:27:01.098Z,0.00
2023-02-04T05:27:33.532Z,0.00
2023-02-04T05:28:06.060Z,0.00
2023-02-04T05:28:38.472Z,0.00
2023-02-04T05:29:10.926Z,0.00
2023-02-04T05:29:43.368Z,0.00
2023-02-04T05:30:15.812Z,0.00
2023-02-04T05:30:48.316Z,0.80
2023-02-04T05:31:20.803Z,0.00
2023-02-04T05:31:53.299Z,0.00
2023-02-04T05:32:25.614Z,0.00
2023-02-04T05:32:58.080Z,0.00
2023-02-04T05:33:30.566Z,0.00
2023-02-04T05:34:02.990Z,0.00
2023-02-04T05:34:35.442Z,0.00
2023-02-04T05:35:07.974Z,0.00
2023-02-04T05:35:40.509Z,0.00
2023-02-04T05:36:12.968Z,0.00
2023-02-04T05:36:45.454Z,0.00
2023-02-04T05:37:17.966Z,0.00
2023-02-04T05:37:50.407Z,2.40
2023-02-04T05:38:22.848Z,1.60
2023-02-04T05:38:55.291Z,0.00
2023-02-04T05:39:27.887Z,0.00
2023-02-04T05:40:00.318Z,0.00
2023-02-04T05:40:33.066Z,0.00
2023-02-04T05:41:05.239Z,0.00
2023-02-04T05:41:37.672Z,0.80
2023-02-04T05:42:10.121Z,0.00
2023-02-04T05:42:42.552Z,0.00
2023-02-04T05:43:15.010Z,0.00
2023-02-04T05:43:47.429Z,0.80
2023-02-04T05:44:19.897Z,0.80
2023-02-04T05:44:52.324Z,0.00
2023-02-04T05:45:24.809Z,1.60
2023-02-04T05:45:57.244Z,0.00
2023-02-04T05:46:29.714Z,0.00
2023-02-04T05:47:02.098Z,0.00
2023-02-04T05:47:34.596Z,0.00
2023-02-04T05:48:07.006Z,0.00
2023-02-04T05:48:39.466Z,0.00
2023-02-04T05:49:11.905Z,0.00
2023-02-04T05:49:44.377Z,0.00
2023-02-04T05:50:16.977Z,0.00
2023-02-04T05:50:49.452Z,0.00
2023-02-04T05:51:21.900Z,0.00
2023-02-04T05:51:54.344Z,0.00
2023-02-04T05:52:26.822Z,0.00
2023-02-04T05:52:59.281Z,0.00
2023-02-04T05:53:31.745Z,0.00
2023-02-04T05:54:04.207Z,0.00
2023-02-04T05:54:36.652Z,0.00
2023-02-04T05:55:09.164Z,0.00
2023-02-04T05:55:41.634Z,0.00
2023-02-04T05:56:14.079Z,0.00
2023-02-04T05:56:46.543Z,0.00
2023-02-04T05:57:18.951Z,0.00
2023-02-04T05:57:51.422Z,0.00
2023-02-04T05:58:24.796Z,0.00
2023-02-04T05:58:57.286Z,0.00
2023-02-04T05:59:29.751Z,0.00
2023-02-04T06:00:02.197Z,0.00
2023-02-04T06:00:34.725Z,0.00
2023-02-04T06:01:07.119Z,0.00
2023-02-04T06:01:39.542Z,0.00
2023-02-04T06:02:11.964Z,0.00
2023-02-04T06:02:44.433Z,0.00
2023-02-04T06:03:16.980Z,0.00
2023-02-04T06:03:49.434Z,0.00
2023-02-04T06:04:21.991Z,0.80
2023-02-04T06:04:54.342Z,0.00
2023-02-04T06:05:26.828Z,0.00
2023-02-04T06:05:59.277Z,0.00
2023-02-04T06:06:31.757Z,0.00
2023-02-04T06:07:04.271Z,0.00
2023-02-04T06:07:36.768Z,0.00
2023-02-04T06:08:09.233Z,0.00
2023-02-04T06:08:41.712Z,0.00
2023-02-04T06:09:14.137Z,0.00
2023-02-04T06:09:46.590Z,0.00
2023-02-04T06:10:19.035Z,0.00
2023-02-04T06:10:51.493Z,0.00
2023-02-04T06:11:23.986Z,0.00
2023-02-04T06:11:56.427Z,0.00
2023-02-04T06:12:28.907Z,0.00
2023-02-04T06:13:01.429Z,0.00
2023-02-04T06:13:33.909Z,0.00
2023-02-04T06:14:06.394Z,0.00
2023-02-04T06:14:38.862Z,0.00
2023-02-04T06:15:11.293Z,0.00
2023-02-04T06:15:43.746Z,0.00
2023-02-04T06:16:16.235Z,0.00
2023-02-04T06:16:48.724Z,0.00
2023-02-04T06:17:21.136Z,0.00
2023-02-04T06:17:53.629Z,0.00
2023-02-04T06:18:26.071Z,0.00
2023-02-04T06:18:58.547Z,0.00
2023-02-04T06:19:30.975Z,0.00
2023-02-04T06:20:03.439Z,0.00
2023-02-04T06:20:35.915Z,0.00
2023-02-04T06:21:08.367Z,0.00
2023-02-04T06:21:40.869Z,0.00
2023-02-04T06:22:13.383Z,0.00
2023-02-04T06:22:45.850Z,0.00
2023-02-04T06:23:18.323Z,0.00
2023-02-04T06:23:50.782Z,0.00
2023-02-04T06:24:23.254Z,0.00
2023-02-04T06:24:55.711Z,0.00
2023-02-04T06:25:28.171Z,0.00
2023-02-04T06:26:08.191Z,0.00
2023-02-04T06:26:41.051Z,0.00
2023-02-04T06:27:13.517Z,0.00
2023-02-04T06:27:46.014Z,0.00
2023-02-04T06:28:18.514Z,0.00
2023-02-04T06:28:50.941Z,0.00
2023-02-04T06:29:23.407Z,0.00
2023-02-04T06:29:55.875Z,0.00
2023-02-04T06:30:28.416Z,0.00
2023-02-04T06:31:00.878Z,0.00
2023-02-04T06:31:33.317Z,0.00
2023-02-04T06:32:05.666Z,0.00
2023-02-04T06:32:38.113Z,0.00
2023-02-04T06:33:10.719Z,0.00
2023-02-04T06:33:44.349Z,0.00
2023-02-04T06:34:17.953Z,0.00
2023-02-04T06:34:50.432Z,0.00
2023-02-04T06:35:23.608Z,0.00
2023-02-04T06:36:01.139Z,0.00
2023-02-04T06:36:33.645Z,0.00
2023-02-04T06:37:06.818Z,0.00
2023-02-04T06:37:41.013Z,0.00
2023-02-04T06:38:14.178Z,0.00
2023-02-04T06:38:54.199Z,0.00
2023-02-04T06:39:26.696Z,0.00
2023-02-04T06:39:59.169Z,0.00
2023-02-04T06:40:31.935Z,0.00
2023-02-04T06:41:04.095Z,0.00
2023-02-04T06:41:36.520Z,0.00
2023-02-04T06:42:08.960Z,0.00
2023-02-04T06:42:41.459Z,0.00
2023-02-04T06:43:13.890Z,0.00
2023-02-04T06:43:46.348Z,0.00
2023-02-04T06:44:18.812Z,0.00
2023-02-04T06:44:51.247Z,0.00
2023-02-04T06:45:23.709Z,0.00
2023-02-04T06:45:56.283Z,0.00
2023-02-04T06:46:28.697Z,0.00
2023-02-04T06:47:01.156Z,0.00
2023-02-04T06:47:33.618Z,0.00
2023-02-04T06:48:06.124Z,0.00
2023-02-04T06:48:38.644Z,0.00
2023-02-04T06:49:11.106Z,0.00
2023-02-04T06:49:43.598Z,0.00
2023-02-04T06:50:16.019Z,0.00
2023-02-04T06:50:48.475Z,0.00
2023-02-04T06:51:20.919Z,0.00
2023-02-04T06:51:53.423Z,0.00
2023-02-04T06:52:25.955Z,0.00
2023-02-04T06:52:58.428Z,0.00
2023-02-04T06:53:30.893Z,0.00
2023-02-04T06:54:03.349Z,0.00
2023-02-04T06:54:35.802Z,0.00
2023-02-04T06:55:08.343Z,0.00
2023-02-04T06:55:40.814Z,0.00
2023-02-04T06:56:13.304Z,0.00
2023-02-04T06:56:45.774Z,0.00
2023-02-04T06:57:18.223Z,0.00
2023-02-04T06:57:50.781Z,0.00
2023-02-04T06:58:23.210Z,0.00
2023-02-04T06:58:55.666Z,0.00
2023-02-04T06:59:28.143Z,0.00
2023-02-04T07:00:00.586Z,0.00
2023-02-04T07:00:33.335Z,0.00
2023-02-04T07:01:05.526Z,0.00
2023-02-04T07:01:38.021Z,0.00
2023-02-04T07:02:10.415Z,0.00
2023-02-04T07:02:42.927Z,0.00
2023-02-04T07:03:15.356Z,0.00
2023-02-04T07:03:47.790Z,0.00
2023-02-04T07:04:20.261Z,0.00
2023-02-04T07:04:52.700Z,0.00
2023-02-04T07:05:25.186Z,0.00
2023-02-04T07:05:57.617Z,0.00
2023-02-04T07:06:30.036Z,0.00
2023-02-04T07:07:02.489Z,0.00
2023-02-04T07:07:34.940Z,0.00
2023-02-04T07:08:07.369Z,0.00
2023-02-04T07:08:39.784Z,0.00
2023-02-04T07:09:12.221Z,0.00
2023-02-04T07:09:44.674Z,0.00
2023-02-04T07:10:17.127Z,0.00
2023-02-04T07:10:49.568Z,0.00
2023-02-04T07:11:22.008Z,0.00
2023-02-04T07:11:54.445Z,0.00
2023-02-04T07:12:26.891Z,0.00
2023-02-04T07:12:59.363Z,0.00
2023-02-04T07:13:31.806Z,0.00
2023-02-04T07:14:04.262Z,0.00
2023-02-04T07:14:36.736Z,0.00